createdAt,value
2018-09-30T00:00:30.580Z,3.07
2018-09-30T00:02:58.480Z,3.30
2018-09-30T00:05:26.326Z,3.57
2018-09-30T00:07:53.997Z,3.60
2018-09-30T00:10:21.682Z,2.90
2018-09-30T00:12:49.719Z,3.47
2018-09-30T00:15:18.367Z,2.63
2018-09-30T00:17:46.883Z,3.60
2018-09-30T00:20:15.519Z,2.97
2018-09-30T00:22:44.063Z,3.07
2018-09-30T00:25:17.237Z,2.90
2018-09-30T00:27:45.717Z,3.03
2018-09-30T00:30:13.546Z,3.03
2018-09-30T00:32:41.388Z,3.10
2018-09-30T00:35:09.219Z,4.00
2018-09-30T00:37:38.288Z,3.83
2018-09-30T00:40:06.226Z,3.17
2018-09-30T00:42:34.009Z,3.23
2018-09-30T00:45:01.917Z,3.23
2018-09-30T00:47:29.946Z,3.20
2018-09-30T00:49:57.974Z,2.57
2018-09-30T00:52:25.790Z,2.97
2018-09-30T00:54:53.613Z,2.77
2018-09-30T00:57:22.043Z,2.50
2018-09-30T00:59:49.851Z,3.27
2018-09-30T01:02:17.679Z,4.07
2018-09-30T01:04:45.926Z,2.30
2018-09-30T01:07:14.353Z,2.77
2018-09-30T01:09:42.382Z,2.63
2018-09-30T01:12:10.330Z,2.80
2018-09-30T01:14:38.573Z,2.77
2018-09-30T01:17:06.497Z,2.30
2018-09-30T01:19:34.251Z,5.33
2018-09-30T01:22:02.848Z,3.60
2018-09-30T01:24:30.779Z,3.37
2018-09-30T01:26:58.730Z,3.30
2018-09-30T01:29:27.051Z,3.50
2018-09-30T01:31:55.695Z,4.47
2018-09-30T01:34:23.612Z,3.43
2018-09-30T01:36:51.326Z,4.00
2018-09-30T01:39:19.172Z,3.83
2018-09-30T01:41:48.549Z,4.23
2018-09-30T01:44:17.054Z,3.80
2018-09-30T01:46:44.950Z,3.70
2018-09-30T01:49:12.859Z,3.40
2018-09-30T01:51:40.731Z,3.60
2018-09-30T01:54:09.777Z,3.57
2018-09-30T01:56:37.618Z,3.20
2018-09-30T01:59:05.421Z,4.77
2018-09-30T02:01:33.226Z,3.40
2018-09-30T02:04:01.006Z,3.63
2018-09-30T02:06:28.877Z,3.83
2018-09-30T02:08:57.449Z,4.10
2018-09-30T02:11:25.911Z,3.00
2018-09-30T02:13:54.625Z,3.13
2018-09-30T02:16:22.427Z,2.90
2018-09-30T02:18:50.268Z,3.10
2018-09-30T02:21:18.198Z,3.07
2018-09-30T02:23:46.101Z,3.33
2018-09-30T02:26:14.169Z,3.40
2018-09-30T02:28:42.193Z,3.30
2018-09-30T02:31:09.943Z,4.03
2018-09-30T02:33:37.695Z,2.77
2018-09-30T02:36:05.274Z,3.43
2018-09-30T02:38:32.813Z,3.10
2018-09-30T02:41:00.326Z,3.80
2018-09-30T02:43:27.902Z,3.80
2018-09-30T02:45:55.471Z,3.60
2018-09-30T02:48:23.052Z,3.30
2018-09-30T02:50:50.594Z,3.27
2018-09-30T02:53:18.221Z,3.20
2018-09-30T02:55:45.783Z,4.30
2018-09-30T02:58:13.364Z,3.63
2018-09-30T03:00:40.887Z,4.03
2018-09-30T03:03:08.441Z,3.90
2018-09-30T03:05:35.996Z,3.37
2018-09-30T03:08:08.669Z,3.60
2018-09-30T03:10:36.216Z,3.30
2018-09-30T03:13:03.714Z,3.73
2018-09-30T03:15:31.268Z,3.57
2018-09-30T03:17:58.787Z,3.53
2018-09-30T03:20:26.388Z,3.30
2018-09-30T03:22:53.982Z,3.70
2018-09-30T03:25:21.478Z,4.50
2018-09-30T03:27:49.027Z,4.00
2018-09-30T03:30:16.607Z,3.20
2018-09-30T03:32:44.166Z,3.43
2018-09-30T03:35:11.693Z,3.53
2018-09-30T03:37:39.246Z,4.17
2018-09-30T03:40:06.807Z,3.50
2018-09-30T03:42:34.394Z,4.10
2018-09-30T03:45:01.948Z,3.60
2018-09-30T03:47:29.505Z,3.87
2018-09-30T03:49:57.035Z,3.87
2018-09-30T03:52:24.597Z,4.00
2018-09-30T03:54:52.192Z,3.57
2018-09-30T03:57:19.745Z,3.70
2018-09-30T03:59:47.241Z,3.23
2018-09-30T04:02:14.895Z,3.00
2018-09-30T04:04:42.458Z,3.80
2018-09-30T04:07:10.080Z,3.80
2018-09-30T04:09:37.684Z,3.20
2018-09-30T04:12:05.262Z,3.77
2018-09-30T04:14:32.843Z,3.53
2018-09-30T04:17:00.580Z,4.73
2018-09-30T04:19:28.195Z,3.50
2018-09-30T04:21:55.762Z,3.60
2018-09-30T04:24:23.282Z,3.97
2018-09-30T04:26:50.817Z,3.30
2018-09-30T04:29:18.350Z,4.10
2018-09-30T04:31:45.930Z,3.37
2018-09-30T04:34:13.557Z,4.63
2018-09-30T04:36:41.086Z,3.43
2018-09-30T04:39:09.169Z,4.40
2018-09-30T04:41:36.747Z,3.30
2018-09-30T04:44:04.304Z,4.00
2018-09-30T04:46:31.864Z,3.40
2018-09-30T04:48:59.449Z,3.57
2018-09-30T04:51:26.983Z,3.57
2018-09-30T04:53:54.565Z,3.83
2018-09-30T04:56:22.075Z,4.20
2018-09-30T04:58:49.674Z,4.10
2018-09-30T05:01:17.197Z,3.10
2018-09-30T05:03:44.731Z,4.30
2018-09-30T05:06:12.266Z,3.90
2018-09-30T05:08:39.883Z,3.83
2018-09-30T05:11:07.483Z,3.83
2018-09-30T05:13:35.007Z,4.50
2018-09-30T05:16:02.613Z,3.50
2018-09-30T05:18:30.210Z,4.07
2018-09-30T05:20:57.721Z,4.10
2018-09-30T05:23:25.290Z,3.70
2018-09-30T05:25:52.963Z,3.47
2018-09-30T05:28:20.574Z,3.83
2018-09-30T05:30:48.094Z,3.50
2018-09-30T05:33:15.690Z,4.13
2018-09-30T05:35:43.285Z,3.50
2018-09-30T05:38:10.934Z,3.60
2018-09-30T05:40:38.472Z,5.23
2018-09-30T05:43:05.995Z,4.07
2018-09-30T05:45:33.522Z,4.50
2018-09-30T05:48:01.054Z,4.03
2018-09-30T05:50:28.613Z,4.10
2018-09-30T05:52:56.211Z,3.77
2018-09-30T05:55:23.765Z,3.90
2018-09-30T05:57:51.386Z,4.77
2018-09-30T06:00:18.986Z,3.77
2018-09-30T06:02:46.532Z,3.83
2018-09-30T06:05:14.901Z,3.77
2018-09-30T06:07:42.587Z,3.57
2018-09-30T06:10:10.367Z,3.27
2018-09-30T06:12:39.232Z,3.23
2018-09-30T06:15:07.827Z,3.10
2018-09-30T06:17:35.690Z,3.23
2018-09-30T06:20:03.482Z,3.37
2018-09-30T06:22:31.300Z,4.10
2018-09-30T06:24:59.435Z,3.87
2018-09-30T06:27:28.380Z,4.20
2018-09-30T06:29:56.235Z,3.53
2018-09-30T06:32:24.346Z,3.63
2018-09-30T06:34:52.284Z,3.00
2018-09-30T06:37:20.378Z,3.20
2018-09-30T06:39:49.090Z,3.43
2018-09-30T06:42:17.634Z,3.40
2018-09-30T06:44:45.626Z,3.57
2018-09-30T06:47:14.510Z,3.00
2018-09-30T06:49:42.250Z,3.30
2018-09-30T06:52:10.846Z,4.27
2018-09-30T06:54:39.350Z,3.40
2018-09-30T06:57:07.262Z,3.60
2018-09-30T06:59:35.077Z,3.20
2018-09-30T07:02:02.918Z,3.40
2018-09-30T07:04:30.766Z,3.87
2018-09-30T07:06:59.676Z,3.60
2018-09-30T07:09:27.578Z,3.23
2018-09-30T07:11:55.226Z,3.33
2018-09-30T07:14:23.014Z,3.23
2018-09-30T07:16:50.900Z,3.90
2018-09-30T07:19:18.496Z,3.50
2018-09-30T07:21:46.076Z,4.00
2018-09-30T07:24:15.062Z,3.10
2018-09-30T07:26:42.949Z,3.80
2018-09-30T07:29:10.880Z,3.40
2018-09-30T07:31:38.762Z,3.40
2018-09-30T07:34:06.773Z,3.00
2018-09-30T07:36:34.715Z,3.00
2018-09-30T07:39:02.907Z,3.50
2018-09-30T07:41:31.187Z,4.50
2018-09-30T07:43:59.971Z,3.50
2018-09-30T07:46:27.908Z,3.90
2018-09-30T07:48:55.782Z,3.67
2018-09-30T07:51:23.516Z,3.83
2018-09-30T07:53:51.521Z,3.43
2018-09-30T07:56:20.481Z,3.80
2018-09-30T07:58:48.415Z,3.50
2018-09-30T08:01:16.601Z,3.50
2018-09-30T08:03:44.528Z,3.50
2018-09-30T08:06:12.391Z,3.60
2018-09-30T08:08:40.898Z,4.23
2018-09-30T08:11:08.775Z,3.60
2018-09-30T08:13:37.702Z,3.43
2018-09-30T08:16:05.686Z,3.37
2018-09-30T08:18:34.222Z,3.77
2018-09-30T08:21:02.073Z,3.83
2018-09-30T08:23:29.987Z,3.23
2018-09-30T08:25:58.265Z,4.13
2018-09-30T08:28:27.124Z,4.30
2018-09-30T08:30:55.141Z,4.90
2018-09-30T08:33:23.004Z,3.60
2018-09-30T08:35:55.934Z,3.80
2018-09-30T08:38:33.083Z,4.43
2018-09-30T08:41:06.243Z,4.07
2018-09-30T08:43:35.497Z,4.10
2018-09-30T08:46:03.217Z,3.43
2018-09-30T08:48:31.239Z,4.60
2018-09-30T08:50:59.178Z,4.13
2018-09-30T08:53:27.358Z,3.63
2018-09-30T08:56:01.285Z,4.10
2018-09-30T08:58:29.751Z,3.97
2018-09-30T09:00:57.512Z,3.83
2018-09-30T09:03:26.968Z,4.07
2018-09-30T09:05:54.911Z,4.07
2018-09-30T09:08:23.615Z,3.43
2018-09-30T09:10:51.430Z,3.93
2018-09-30T09:13:20.006Z,4.30
2018-09-30T09:15:47.707Z,4.00
2018-09-30T09:18:15.744Z,3.80
2018-09-30T09:20:44.455Z,4.20
2018-09-30T09:23:12.278Z,3.53
2018-09-30T09:25:40.813Z,3.37
2018-09-30T09:28:08.744Z,4.10
2018-09-30T09:30:36.580Z,4.30
2018-09-30T09:33:04.608Z,3.87
2018-09-30T09:35:32.576Z,4.30
2018-09-30T09:38:01.843Z,4.20
2018-09-30T09:40:29.835Z,4.10
2018-09-30T09:42:57.671Z,4.10
2018-09-30T09:45:25.342Z,4.57
2018-09-30T09:47:53.266Z,3.07
2018-09-30T09:50:21.104Z,4.23
2018-09-30T09:52:49.398Z,4.17
2018-09-30T09:55:17.282Z,3.70
2018-09-30T09:57:45.219Z,4.30
2018-09-30T10:00:18.106Z,3.77
2018-09-30T10:02:46.750Z,4.40
2018-09-30T10:05:15.120Z,4.47
2018-09-30T10:07:43.506Z,4.37
2018-09-30T10:10:11.348Z,3.77
2018-09-30T10:12:39.213Z,3.70
2018-09-30T10:15:07.961Z,4.50
2018-09-30T10:17:36.744Z,3.87
2018-09-30T10:20:04.449Z,4.73
2018-09-30T10:22:32.403Z,4.37
2018-09-30T10:25:00.425Z,3.63
2018-09-30T10:27:28.278Z,4.50
2018-09-30T10:29:56.098Z,3.87
2018-09-30T10:32:24.198Z,4.43
2018-09-30T10:34:52.668Z,8.33
2018-09-30T10:37:21.759Z,4.23
2018-09-30T10:39:49.706Z,4.07
2018-09-30T10:42:17.798Z,4.50
2018-09-30T10:44:46.093Z,4.20
2018-09-30T10:47:13.712Z,4.90
2018-09-30T10:49:41.272Z,3.80
2018-09-30T10:52:08.859Z,3.53
2018-09-30T10:54:36.919Z,5.40
2018-09-30T10:57:05.333Z,3.80
2018-09-30T10:59:33.259Z,4.00
2018-09-30T11:02:01.208Z,3.90
2018-09-30T11:04:30.661Z,4.60
2018-09-30T11:06:58.346Z,4.30
2018-09-30T11:09:26.743Z,4.33
2018-09-30T11:11:55.859Z,3.30
2018-09-30T11:14:23.839Z,4.57
2018-09-30T11:16:51.855Z,5.37
2018-09-30T11:19:19.803Z,6.10
2018-09-30T11:21:48.726Z,4.07
2018-09-30T11:24:17.361Z,4.70
2018-09-30T11:26:45.202Z,4.17
2018-09-30T11:29:12.967Z,2.87
2018-09-30T11:31:40.890Z,4.83
2018-09-30T11:34:08.827Z,3.43
2018-09-30T11:36:37.508Z,4.40
2018-09-30T11:39:07.362Z,3.70
2018-09-30T11:41:35.288Z,4.13
2018-09-30T11:44:03.166Z,4.20
2018-09-30T11:46:30.985Z,4.70
2018-09-30T11:48:58.953Z,3.83
2018-09-30T11:51:26.769Z,5.13
2018-09-30T11:53:54.554Z,4.60
2018-09-30T11:56:22.437Z,4.83
2018-09-30T11:58:50.186Z,4.20
2018-09-30T12:01:18.143Z,4.47
2018-09-30T12:03:45.863Z,4.77
2018-09-30T12:06:13.847Z,4.30
2018-09-30T12:08:41.661Z,5.13
2018-09-30T12:11:09.432Z,5.07
2018-09-30T12:13:37.332Z,5.03
2018-09-30T12:16:05.004Z,4.27
2018-09-30T12:18:32.688Z,3.50
2018-09-30T12:21:00.637Z,3.83
2018-09-30T12:23:29.030Z,3.50
2018-09-30T12:25:57.974Z,4.37
2018-09-30T12:28:26.199Z,4.03
2018-09-30T12:30:55.063Z,3.67
2018-09-30T12:33:22.929Z,3.77
2018-09-30T12:35:51.381Z,3.53
2018-09-30T12:38:19.357Z,4.53
2018-09-30T12:40:47.309Z,3.77
2018-09-30T12:43:15.153Z,5.33
2018-09-30T12:45:42.914Z,3.77
2018-09-30T12:48:10.824Z,2.70
2018-09-30T12:50:38.546Z,3.93
2018-09-30T12:53:06.387Z,3.20
2018-09-30T12:55:34.434Z,3.70
2018-09-30T12:58:02.327Z,3.23
2018-09-30T13:00:29.965Z,3.20
2018-09-30T13:02:57.575Z,3.50
2018-09-30T13:05:25.446Z,4.10
2018-09-30T13:07:53.262Z,4.50
2018-09-30T13:10:21.397Z,4.20
2018-09-30T13:12:49.377Z,4.17
2018-09-30T13:15:17.310Z,3.13
2018-09-30T13:17:44.885Z,3.87
2018-09-30T13:20:12.510Z,3.60
2018-09-30T13:22:40.147Z,4.07
2018-09-30T13:25:07.919Z,4.60
2018-09-30T13:27:36.425Z,5.67
2018-09-30T13:30:04.846Z,4.60
2018-09-30T13:32:32.666Z,4.50
2018-09-30T13:35:01.133Z,5.17
2018-09-30T13:37:29.366Z,5.07
2018-09-30T13:39:58.296Z,4.53
2018-09-30T13:42:26.218Z,3.67
2018-09-30T13:44:54.235Z,3.07
2018-09-30T13:47:22.148Z,4.83
2018-09-30T13:49:50.794Z,4.63
2018-09-30T13:52:18.478Z,4.60
2018-09-30T13:54:46.504Z,5.10
2018-09-30T13:57:14.367Z,6.23
2018-09-30T13:59:42.438Z,6.50
2018-09-30T14:02:10.430Z,4.50
2018-09-30T14:04:38.284Z,6.13
2018-09-30T14:07:06.609Z,6.17
2018-09-30T14:09:34.837Z,5.77
2018-09-30T14:12:03.186Z,5.17
2018-09-30T14:14:31.389Z,3.90
2018-09-30T14:16:59.781Z,4.00
2018-09-30T14:19:27.845Z,3.90
2018-09-30T14:21:55.664Z,3.70
2018-09-30T14:24:23.867Z,4.80
2018-09-30T14:26:51.698Z,3.30
2018-09-30T14:29:19.599Z,4.70
2018-09-30T14:31:47.479Z,4.03
2018-09-30T14:34:15.426Z,4.20
2018-09-30T14:36:43.544Z,3.97
2018-09-30T14:39:13.012Z,4.40
2018-09-30T14:41:41.052Z,4.17
2018-09-30T14:44:09.389Z,4.00
2018-09-30T14:46:37.717Z,3.40
2018-09-30T14:49:05.706Z,3.27
2018-09-30T14:51:33.694Z,4.50
2018-09-30T14:54:01.429Z,3.70
2018-09-30T14:56:29.075Z,3.40
2018-09-30T14:58:56.764Z,4.03
2018-09-30T15:01:25.173Z,3.50
2018-09-30T15:03:53.930Z,3.30
2018-09-30T15:06:21.902Z,3.50
2018-09-30T15:08:49.536Z,3.40
2018-09-30T15:11:17.187Z,3.30
2018-09-30T15:13:45.320Z,3.90
2018-09-30T15:16:13.287Z,4.50
2018-09-30T15:18:41.231Z,3.00
2018-09-30T15:21:10.331Z,2.83
2018-09-30T15:23:37.993Z,3.73
2018-09-30T15:26:05.791Z,3.20
2018-09-30T15:28:34.432Z,3.30
2018-09-30T15:31:02.476Z,3.63
2018-09-30T15:33:30.319Z,3.00
2018-09-30T15:35:58.204Z,3.57
2018-09-30T15:38:26.030Z,3.40
2018-09-30T15:40:54.584Z,3.10
2018-09-30T15:43:23.522Z,3.10
2018-09-30T15:45:51.346Z,2.90
2018-09-30T15:48:19.407Z,3.30
2018-09-30T15:50:48.337Z,3.27
2018-09-30T15:53:16.289Z,2.70
2018-09-30T15:55:44.115Z,3.40
2018-09-30T15:58:11.876Z,3.47
2018-09-30T16:00:39.794Z,3.83
2018-09-30T16:03:07.752Z,3.60
2018-09-30T16:05:35.505Z,3.80
2018-09-30T16:08:04.170Z,3.50
2018-09-30T16:10:32.977Z,3.40
2018-09-30T16:13:01.646Z,3.17
2018-09-30T16:15:29.578Z,3.30
2018-09-30T16:17:57.608Z,3.30
2018-09-30T16:20:26.511Z,3.83
2018-09-30T16:22:55.279Z,4.03
2018-09-30T16:25:23.485Z,3.90
2018-09-30T16:27:51.891Z,4.17
2018-09-30T16:30:19.782Z,4.57
2018-09-30T16:32:47.542Z,4.40
2018-09-30T16:35:15.464Z,2.67
2018-09-30T16:37:43.390Z,3.17
2018-09-30T16:40:12.967Z,3.43
2018-09-30T16:42:42.290Z,4.43
2018-09-30T16:45:10.087Z,3.30
2018-09-30T16:47:38.031Z,3.43
2018-09-30T16:50:05.849Z,3.70
2018-09-30T16:52:34.090Z,3.43
2018-09-30T16:55:03.005Z,4.30
2018-09-30T16:57:30.879Z,3.10
2018-09-30T16:59:58.971Z,3.10
2018-09-30T17:02:26.902Z,2.77
2018-09-30T17:04:54.901Z,3.60
2018-09-30T17:07:23.403Z,3.80
2018-09-30T17:09:51.353Z,3.77
2018-09-30T17:12:19.008Z,3.07
2018-09-30T17:14:46.820Z,3.20
2018-09-30T17:17:14.624Z,3.10
2018-09-30T17:19:42.299Z,3.03
2018-09-30T17:22:10.005Z,3.07
2018-09-30T17:24:37.975Z,3.33
2018-09-30T17:27:06.389Z,3.07
2018-09-30T17:29:34.245Z,3.60
2018-09-30T17:32:01.954Z,3.23
2018-09-30T17:34:29.933Z,3.97
2018-09-30T17:36:58.270Z,3.83
2018-09-30T17:39:26.282Z,3.93
2018-09-30T17:41:54.211Z,4.03
2018-09-30T17:44:22.078Z,2.67
2018-09-30T17:46:50.129Z,3.17
2018-09-30T17:49:17.990Z,3.20
2018-09-30T17:51:46.018Z,3.13
2018-09-30T17:54:15.223Z,3.60
2018-09-30T17:56:43.125Z,2.77
2018-09-30T17:59:10.915Z,3.27
2018-09-30T18:01:39.123Z,3.00
2018-09-30T18:04:06.803Z,3.50
2018-09-30T18:06:34.558Z,4.60
2018-09-30T18:09:02.699Z,2.93
2018-09-30T18:11:30.397Z,3.27
2018-09-30T18:13:58.370Z,3.20
2018-09-30T18:16:26.179Z,3.10
2018-09-30T18:18:54.708Z,3.90
2018-09-30T18:21:22.585Z,5.00
2018-09-30T18:23:50.379Z,6.03
2018-09-30T18:26:17.906Z,5.37
2018-09-30T18:28:45.442Z,6.40
2018-09-30T18:31:13.726Z,5.03
2018-09-30T18:33:41.975Z,5.20
2018-09-30T18:36:09.947Z,4.90
2018-09-30T18:38:38.264Z,4.93
2018-09-30T18:41:06.849Z,4.10
2018-09-30T18:43:34.755Z,3.90
2018-09-30T18:46:02.788Z,5.70
2018-09-30T18:48:30.737Z,6.30
2018-09-30T18:50:59.625Z,6.40
2018-09-30T18:53:27.506Z,6.60
2018-09-30T18:55:55.581Z,3.77
2018-09-30T18:58:24.219Z,3.70
2018-09-30T19:00:52.379Z,3.83
2018-09-30T19:03:21.134Z,4.07
2018-09-30T19:05:49.608Z,4.70
2018-09-30T19:08:17.954Z,4.20
2018-09-30T19:10:45.742Z,5.63
2018-09-30T19:13:14.449Z,6.87
2018-09-30T19:15:42.789Z,5.50
2018-09-30T19:18:11.347Z,6.30
2018-09-30T19:20:39.274Z,6.60
2018-09-30T19:23:07.278Z,6.73
2018-09-30T19:25:35.342Z,4.93
2018-09-30T19:28:03.154Z,5.63
2018-09-30T19:30:30.924Z,5.10
2018-09-30T19:32:58.876Z,5.30
2018-09-30T19:35:26.777Z,4.73
2018-09-30T19:37:55.516Z,5.03
2018-09-30T19:40:23.962Z,4.97
2018-09-30T19:42:51.819Z,5.27
2018-09-30T19:45:19.604Z,5.67
2018-09-30T19:47:48.133Z,5.83
2018-09-30T19:50:15.986Z,5.67
2018-09-30T19:52:43.982Z,6.10
2018-09-30T19:55:12.309Z,7.60
2018-09-30T19:57:40.262Z,8.60
2018-09-30T20:00:09.181Z,6.97
2018-09-30T20:02:37.834Z,7.20
2018-09-30T20:05:05.682Z,6.80
2018-09-30T20:07:33.730Z,7.07
2018-09-30T20:10:01.793Z,6.60
2018-09-30T20:12:29.629Z,7.10
2018-09-30T20:14:57.319Z,6.30
2018-09-30T20:17:25.539Z,5.40
2018-09-30T20:19:53.385Z,5.10
2018-09-30T20:22:21.302Z,5.10
2018-09-30T20:24:49.359Z,6.10
2018-09-30T20:27:17.270Z,4.70
2018-09-30T20:29:45.255Z,4.60
2018-09-30T20:32:13.120Z,5.57
2018-09-30T20:34:41.823Z,5.07
2018-09-30T20:37:09.759Z,4.77
2018-09-30T20:39:37.371Z,4.83
2018-09-30T20:42:05.480Z,4.97
2018-09-30T20:44:33.390Z,4.60
2018-09-30T20:47:01.374Z,4.43
2018-09-30T20:49:29.387Z,4.50
2018-09-30T20:51:57.306Z,4.50
2018-09-30T20:54:25.227Z,4.37
2018-09-30T20:56:53.275Z,4.20
2018-09-30T20:59:21.586Z,4.10
2018-09-30T21:01:49.381Z,3.57
2018-09-30T21:04:17.212Z,3.60
2018-09-30T21:06:45.619Z,3.30
2018-09-30T21:09:14.854Z,3.93
2018-09-30T21:11:43.814Z,3.73
2018-09-30T21:14:11.830Z,4.00
2018-09-30T21:16:39.847Z,4.10
2018-09-30T21:19:07.728Z,4.07
2018-09-30T21:21:36.378Z,3.40
2018-09-30T21:24:04.385Z,3.10
2018-09-30T21:26:32.375Z,2.87
2018-09-30T21:29:00.289Z,3.87
2018-09-30T21:31:28.889Z,3.90
2018-09-30T21:33:56.893Z,3.23
2018-09-30T21:36:25.183Z,4.07
2018-09-30T21:38:54.777Z,4.10
2018-09-30T21:41:22.655Z,3.67
2018-09-30T21:43:50.661Z,3.17
2018-09-30T21:46:18.466Z,3.43
2018-09-30T21:48:46.953Z,2.97
2018-09-30T21:51:14.732Z,3.77
2018-09-30T21:53:43.165Z,3.50
2018-09-30T21:56:11.114Z,3.50
2018-09-30T21:58:38.954Z,3.20
2018-09-30T22:01:06.676Z,3.60
2018-09-30T22:03:34.711Z,2.90
2018-09-30T22:06:02.609Z,3.17
2018-09-30T22:08:30.359Z,3.00
2018-09-30T22:10:58.268Z,3.03
2018-09-30T22:13:26.690Z,3.90
2018-09-30T22:15:54.499Z,3.80
2018-09-30T22:18:22.118Z,4.30
2018-09-30T22:20:49.928Z,4.20
2018-09-30T22:23:18.845Z,4.13
2018-09-30T22:25:47.846Z,4.10
2018-09-30T22:28:15.591Z,4.63
2018-09-30T22:30:43.326Z,4.30
2018-09-30T22:33:11.227Z,4.17
2018-09-30T22:35:38.982Z,4.63
2018-09-30T22:38:07.623Z,5.30
2018-09-30T22:40:36.163Z,5.10
2018-09-30T22:43:04.071Z,4.43
2018-09-30T22:45:31.799Z,4.63
2018-09-30T22:47:59.765Z,4.57
2018-09-30T22:50:27.770Z,5.67
2018-09-30T22:52:56.394Z,5.30
2018-09-30T22:55:24.199Z,5.47
2018-09-30T22:57:51.994Z,4.83
2018-09-30T23:00:19.882Z,4.50
2018-09-30T23:02:47.646Z,5.27
2018-09-30T23:05:15.608Z,4.40
2018-09-30T23:07:43.490Z,4.13
2018-09-30T23:10:12.472Z,4.40
2018-09-30T23:12:40.474Z,4.10
2018-09-30T23:15:08.909Z,4.03
2018-09-30T23:17:36.714Z,3.80
2018-09-30T23:20:04.594Z,4.00
2018-09-30T23:22:32.264Z,4.33
2018-09-30T23:25:00.892Z,3.40
2018-09-30T23:27:28.789Z,4.40
2018-09-30T23:29:56.601Z,4.07
2018-09-30T23:32:24.477Z,4.00
2018-09-30T23:34:52.842Z,3.90
2018-09-30T23:37:20.798Z,4.20
2018-09-30T23:39:48.824Z,3.97
2018-09-30T23:42:16.623Z,4.70
2018-09-30T23:44:44.477Z,3.40
2018-09-30T23:47:13.037Z,3.90
2018-09-30T23:49:41.615Z,3.20
2018-09-30T23:52:09.570Z,3.90
2018-09-30T23:54:37.462Z,3.93
2018-09-30T23:57:05.479Z,3.37
2018-09-30T23:59:33.497Z,3.10
